Aérodrome :
LOGIN :

S'inscrire | Disclaimer

   EN    FR    IT 

 










Légende :    VFR   VFR Marginal   IFR   IFR Intensif   IFR Très Intensif
Visi : 
Plafond : 
>= 8 km
>= 3000ft
5 à 8 km
1000 à 3000 ft
1500m à 5 km
500 à 1000 ft
800 à 1500m
200 à 500 ft
< 800m
< 200 ft
Symboles :   Orages  Brouillard  Fortes neiges  Fortes précipitations  Vent > 20 kt
SIGMETs :   Divers  Orages  Givrage  Turbulence  Onde Orograph.  Cendres Volcan.







- Altitude de l'aérodrome : 72 ft
- Code IATA : UDE


EHVK - Volkel Airbase

DERNIER METAR :
  • 181055Z AUTO 34006KT 270V060 9999 BKN043 BKN048 16/05 Q1027 BLU 33006KT 9999 SCT045

METARs EXPIRÉS :
  • 181049Z AUTO 32006KT 270V060 9999 BKN043 BKN047 OVC052 16/04 Q1027 BLU 32006KT 9999 SCT BKN055
  • 181025Z AUTO 35005KT 320V060 9999 FEW034 SCT041 17/05 Q1027 BLU 32006KT 9999 FEW028 BKN055
  • 180955Z AUTO VRB03KT 9999 SCT056 16/07 Q1027 BLU 32006KT 9999 FEW028 BKN055
  • 180925Z AUTO 33003KT 250V360 9999 OVC056 15/07 Q1028 BLU 32006KT 9999 FEW028 BKN055
  • 180855Z AUTO 31003KT 270V350 9999 OVC054 14/08 Q1028 BLU 32006KT 9999 FEW028 BKN055
  • 180825Z AUTO 31006KT 270V340 9999 OVC056/// 14/08 Q1027 BLU 32006KT 9999 FEW028 BKN055

TAF TAF EHVK
Valide du 18 à 05h jusqu'au 18 à 17h UTC


180446Z 1805/1817 VRB02KT CAVOK
BECMG 1809/1812 33007KT
Pas de NOTAMs connus pour ce terrain.



MET'MAP, la Météo Aéronautique d'un coup d'oeil ! - Copyright ORBIFLY Décembre 2007 - Disclaimer

ORBIFLY MET'MAP TEAM :

Programmation & Développement : Alexandra Zaïnal
Conception & Développement : Baudouin d'Aumeries
Co-Programmation & Développement : Marc-Olivier Méhu
Soutien technique & logistique : Manuel Goepfert

Contact : metmap@orbifly.com




SOURCES & CREDITS :

   NOAA